Time;durP1;ratioP1;P1;durP2;ratioP2;P2;SDS_P1;SDS_P2;PMS_P1;PMS_P2;Temp;Humidity;BMP_temperature;BMP_pressure;BME280_temperature;BME280_humidity;BME280_pressure;Samples;Min_cycle;Max_cycle;Signal;HPM_P1;HPM_P2
2022/06/02 11:15:24;;;;;;;58.88;38.45;;;;;;;25.27;30.99;96816.38;2084905;28;20560;-61
2022/06/02 11:17:11;;;;;;;6.03;1.90;;;;;;;24.89;31.08;96811.25;2065464;28;20200;-61
2022/06/02 11:18:33;;;;;;;8.60;3.30;;;;;;;25.65;30.78;96808.09;2062428;28;20202;-61
2022/06/02 11:20:14;;;;;;;38.90;26.58;;;;;;;26.16;29.63;96810.84;2067117;28;20254;-62
2022/06/02 11:21:31;;;;;;;2.75;1.70;;;;;;;26.83;29.43;96810.81;2066737;28;20552;-62
2022/06/02 11:23:10;;;;;;;2.63;1.10;;;;;;;26.79;28.69;96814.84;2059036;28;20225;-63
2022/06/02 11:25:04;;;;;;;4.20;1.20;;;;;;;26.55;28.58;96808.41;2059167;28;20190;-63
2022/06/02 11:26:18;;;;;;;2.40;1.17;;;;;;;26.08;30.09;96817.00;2058095;28;20675;-63
2022/06/02 11:27:38;;;;;;;2.45;1.00;;;;;;;26.57;30.18;96808.25;2056406;28;20355;-63
2022/06/02 11:28:55;;;;;;;4.45;0.93;;;;;;;26.97;29.60;96787.88;2065258;28;20703;-64
2022/06/02 11:30:02;;;;;;;3.05;1.23;;;;;;;26.99;28.98;96806.47;2060947;28;20550;-65
2022/06/02 11:31:13;;;;;;;2.72;1.10;;;;;;;27.19;28.18;96813.13;2060802;28;20206;-65
2022/06/02 11:32:56;;;;;;;6.53;1.00;;;;;;;27.46;27.71;96816.47;2057776;28;20245;-65
2022/06/02 11:34:44;;;;;;;10.90;1.33;;;;;;;27.45;27.37;96808.59;2058287;28;20209;-65
2022/06/02 11:36:10;;;;;;;4.70;2.10;;;;;;;27.17;27.71;96803.59;2059836;28;20228;-66
2022/06/02 11:37:26;;;;;;;4.97;1.60;;;;;;;26.89;28.95;96799.44;2054708;28;20224;-65
2022/06/02 11:38:55;;;;;;;13.60;5.65;;;;;;;26.87;29.48;96798.75;2069232;28;20201;-65
2022/06/02 11:40:08;;;;;;;353.60;177.90;;;;;;;27.49;28.83;96804.56;2063528;28;20191;-63
2022/06/02 11:41:22;;;;;;;135.15;58.75;;;;;;;27.41;28.72;96805.41;2059975;28;20730;-63
2022/06/02 11:42:33;;;;;;;185.68;87.63;;;;;;;27.32;28.61;96803.75;2060507;28;20234;-63
2022/06/02 11:43:40;;;;;;;49.58;23.17;;;;;;;27.20;27.56;96800.59;2059425;28;20689;-63
2022/06/02 11:44:58;;;;;;;11.90;1.65;;;;;;;24.40;30.53;96792.91;2059740;28;20230;-62
2022/06/02 11:46:34;;;;;;;3.63;1.27;;;;;;;24.52;31.17;96782.88;2060034;28;20203;-61
2022/06/02 11:48:11;;;;;;;2.88;1.75;;;;;;;24.61;31.16;96779.28;2057749;28;20215;-61
2022/06/02 11:49:37;;;;;;;3.72;1.08;;;;;;;25.95;31.16;96781.81;2059319;28;20203;-61
2022/06/02 11:50:50;;;;;;;3.40;1.10;;;;;;;26.62;29.51;96783.66;2059455;28;20642;-61
2022/06/02 11:52:16;;;;;;;1.92;1.05;;;;;;;27.20;28.22;96790.69;2052037;28;20622;-63
2022/06/02 11:53:39;;;;;;;1.35;0.95;;;;;;;27.31;28.45;96789.50;2065114;28;20701;-64
2022/06/02 11:55:19;;;;;;;1.73;1.10;;;;;;;27.19;29.03;96790.88;2067186;28;20204;-63
2022/06/02 11:56:38;;;;;;;5.63;1.40;;;;;;;27.20;28.24;96787.19;2063530;28;20210;-63
2022/06/02 11:58:31;;;;;;;12.38;1.27;;;;;;;27.59;28.19;96785.59;2058139;28;20214;-63
2022/06/02 11:59:35;;;;;;;2.83;1.30;;;;;;;27.62;28.74;96779.91;2068030;28;20201;-61
2022/06/02 12:01:12;;;;;;;7.45;1.80;;;;;;;27.67;28.46;96791.78;2065762;28;20781;-61
2022/06/02 12:02:39;;;;;;;3.65;1.08;;;;;;;26.94;29.18;96787.38;2059386;28;20223;-61
2022/06/02 12:03:43;;;;;;;2.05;1.10;;;;;;;26.66;29.37;96788.50;2060905;28;21045;-64
2022/06/02 12:05:04;;;;;;;2.33;1.20;;;;;;;26.82;29.51;96785.03;2060901;28;20294;-63
2022/06/02 12:06:24;;;;;;;7.65;1.00;;;;;;;26.82;28.86;96777.00;2058552;28;20601;-63
2022/06/02 12:07:55;;;;;;;6.57;1.20;;;;;;;26.67;29.55;96778.66;2060458;28;20230;-63
2022/06/02 12:09:12;;;;;;;3.63;1.10;;;;;;;26.39;30.49;96792.34;2057519;28;20195;-64
2022/06/02 12:10:46;;;;;;;5.18;1.60;;;;;;;27.11;29.45;96790.88;2057860;28;20195;-64
2022/06/02 12:11:53;;;;;;;8.40;1.20;;;;;;;27.12;29.60;96803.25;2055719;28;20719;-64
2022/06/02 12:13:06;;;;;;;5.85;0.95;;;;;;;26.79;29.88;96792.56;2069108;28;20186;-64
2022/06/02 12:14:07;;;;;;;9.40;1.30;;;;;;;27.10;29.46;96797.25;2062582;28;20281;-64
2022/06/02 12:15:34;;;;;;;2.42;1.17;;;;;;;27.23;29.07;96796.72;2058914;28;20282;-64
2022/06/02 12:16:44;;;;;;;3.05;1.02;;;;;;;27.51;28.91;96794.50;2052385;28;20244;-63
2022/06/02 12:18:03;;;;;;;4.60;1.30;;;;;;;27.70;28.81;96791.44;2069094;28;20582;-64
2022/06/02 12:19:13;;;;;;;14.32;1.20;;;;;;;27.68;28.86;96787.25;2061171;28;20204;-64
2022/06/02 12:20:56;;;;;;;2.80;1.35;;;;;;;27.66;28.86;96782.06;2059729;28;20206;-64
2022/06/02 12:22:25;;;;;;;3.92;1.10;;;;;;;26.55;30.20;96778.13;2068150;28;20221;-64
2022/06/02 12:23:54;;;;;;;4.50;1.33;;;;;;;27.11;29.09;96780.16;2059398;28;20217;-64
2022/06/02 12:25:12;;;;;;;6.95;1.65;;;;;;;26.95;28.66;96781.84;2058785;28;20206;-64
2022/06/02 12:26:17;;;;;;;3.47;1.05;;;;;;;26.94;28.81;96771.31;2054604;28;20203;-64
2022/06/02 12:27:43;;;;;;;4.78;1.20;;;;;;;26.98;29.38;96780.66;2051869;28;20237;-64
2022/06/02 12:28:59;;;;;;;4.63;1.30;;;;;;;26.94;28.79;96763.25;2057766;28;20206;-64
2022/06/02 12:30:03;;;;;;;5.85;1.45;;;;;;;27.08;28.83;96765.25;2054596;28;20203;-64
2022/06/02 12:31:40;;;;;;;3.33;1.38;;;;;;;26.29;30.10;96764.88;2053355;28;20262;-64
2022/06/02 12:33:00;;;;;;;9.18;1.17;;;;;;;26.67;30.27;96762.56;2051419;28;20227;-64
2022/06/02 12:34:17;;;;;;;2.42;1.38;;;;;;;26.97;29.86;96770.94;2054287;28;20199;-64
2022/06/02 12:35:35;;;;;;;72.43;42.35;;;;;;;26.79;29.50;96771.13;2054091;28;20302;-66
2022/06/02 12:36:51;;;;;;;68.05;45.35;;;;;;;26.92;29.49;96768.81;2046190;28;20297;-65
2022/06/02 12:38:02;;;;;;;5.68;1.65;;;;;;;27.06;29.59;96775.31;2068754;28;20279;-64
2022/06/02 12:39:21;;;;;;;3.55;1.20;;;;;;;26.76;28.74;96769.63;2063199;28;20199;-65
2022/06/02 12:40:28;;;;;;;2.80;1.02;;;;;;;26.69;29.61;96761.41;2063282;28;20202;-64
2022/06/02 12:41:45;;;;;;;4.05;1.20;;;;;;;26.83;29.77;96764.44;2060823;28;20210;-64
2022/06/02 12:42:49;;;;;;;3.35;1.27;;;;;;;26.94;29.75;96760.59;2062952;28;20209;-64
2022/06/02 12:44:09;;;;;;;2.92;1.02;;;;;;;26.83;29.43;96762.59;2062044;28;20203;-64
2022/06/02 12:45:32;;;;;;;7.03;1.40;;;;;;;26.92;29.82;96767.94;2062247;28;20660;-64
2022/06/02 12:46:58;;;;;;;5.20;1.17;;;;;;;27.14;29.29;96766.44;2052016;28;20214;-64
2022/06/02 12:48:18;;;;;;;4.43;1.13;;;;;;;27.05;29.55;96766.41;2068994;28;20206;-64
2022/06/02 12:49:51;;;;;;;1.83;1.00;;;;;;;27.06;28.65;96761.91;2061152;28;20202;-64
2022/06/02 12:51:30;;;;;;;2.67;1.00;;;;;;;26.99;29.73;96774.31;2068868;28;20257;-64
2022/06/02 12:52:47;;;;;;;2.92;1.30;;;;;;;26.86;29.25;96777.50;2064948;28;20229;-64
2022/06/02 12:54:11;;;;;;;1.92;1.05;;;;;;;26.85;29.09;96773.97;2062138;28;20419;-64
2022/06/02 12:55:34;;;;;;;3.03;1.05;;;;;;;27.27;28.75;96771.25;2060786;28;20214;-64
2022/06/02 12:57:11;;;;;;;6.38;1.10;;;;;;;27.82;27.80;96767.75;2054677;28;20198;-64
2022/06/02 12:58:37;;;;;;;1.92;0.90;;;;;;;27.86;28.39;96774.44;2069082;28;20704;-64
2022/06/02 12:59:39;;;;;;;3.40;1.23;;;;;;;27.68;28.88;96782.72;2062677;28;20450;-64
2022/06/02 13:00:50;;;;;;;1.10;0.90;;;;;;;27.12;28.39;96774.66;2060775;28;20202;-64
2022/06/02 13:02:05;;;;;;;1.52;0.90;;;;;;;27.59;28.83;96767.69;2059809;28;20244;-64
2022/06/02 13:03:39;;;;;;;6.28;1.10;;;;;;;27.59;28.30;96780.25;2062977;28;20752;-64
2022/06/02 13:05:05;;;;;;;3.97;1.00;;;;;;;27.95;28.48;96767.19;2061250;28;20670;-64
2022/06/02 13:06:35;;;;;;;4.22;1.00;;;;;;;27.66;28.35;96775.88;2061167;28;20194;-66
2022/06/02 13:07:49;;;;;;;1.77;1.15;;;;;;;27.72;27.97;96766.28;2060795;28;20225;-66
2022/06/02 13:09:04;;;;;;;2.45;1.33;;;;;;;27.73;28.60;96771.50;2060856;28;20194;-66
2022/06/02 13:10:27;;;;;;;3.97;1.20;;;;;;;27.52;28.97;96770.22;2062400;28;20206;-66
2022/06/02 13:11:59;;;;;;;1.67;1.10;;;;;;;27.70;28.90;96771.81;2052815;28;20195;-66
2022/06/02 13:13:45;;;;;;;3.08;1.05;;;;;;;26.53;30.09;96770.25;2069374;28;20661;-64
2022/06/02 13:15:01;;;;;;;21.67;14.45;;;;;;;26.65;30.34;96769.94;2054439;28;20801;-66
2022/06/02 13:16:22;;;;;;;12.57;8.05;;;;;;;26.70;30.17;96767.59;2062966;28;20325;-64
2022/06/02 13:17:50;;;;;;;4.80;2.53;;;;;;;26.32;30.72;96775.25;2053332;28;20230;-66
2022/06/02 13:19:09;;;;;;;2.15;1.20;;;;;;;26.37;29.97;96772.91;2057596;28;20610;-65
2022/06/02 13:20:40;;;;;;;7.57;0.95;;;;;;;26.23;30.29;96767.22;2061293;28;20290;-65
2022/06/02 13:21:53;;;;;;;2.58;1.20;;;;;;;26.54;30.47;96755.06;2060189;28;20213;-66
2022/06/02 13:23:17;;;;;;;4.55;1.17;;;;;;;26.22;31.10;96764.69;2067931;28;20202;-66
2022/06/02 13:24:43;;;;;;;1.98;1.10;;;;;;;26.27;30.75;96765.06;2046440;28;20195;-65
2022/06/02 13:26:09;;;;;;;1.40;1.02;;;;;;;26.50;30.85;96765.25;2060539;28;20849;-66
2022/06/02 13:27:22;;;;;;;6.63;1.30;;;;;;;26.39;30.69;96769.06;2058175;28;20603;-65
2022/06/02 13:28:43;;;;;;;3.97;1.20;;;;;;;26.25;29.96;96767.03;2068378;28;20205;-65
2022/06/02 13:29:57;;;;;;;14.00;3.35;;;;;;;26.20;30.75;96762.19;2059502;28;20803;-63
2022/06/02 13:31:10;;;;;;;8.63;2.35;;;;;;;26.39;30.80;96771.75;2061723;28;20524;-64
2022/06/02 13:32:58;;;;;;;13.00;2.30;;;;;;;26.63;30.47;96766.59;2058675;28;20224;-64
2022/06/02 13:34:12;;;;;;;9.43;2.30;;;;;;;26.28;30.80;96757.84;2065628;28;20194;-66
2022/06/02 13:35:13;;;;;;;40.70;27.80;;;;;;;26.34;30.33;96752.66;2060785;28;20194;-64
2022/06/02 13:36:41;;;;;;;52.83;30.58;;;;;;;26.40;30.18;96746.66;2062200;28;20337;-67
2022/06/02 13:38:07;;;;;;;29.75;18.13;;;;;;;26.49;29.70;96760.06;2049665;28;20223;-66
2022/06/02 13:39:11;;;;;;;3.08;1.42;;;;;;;26.68;29.12;96759.72;2052191;28;20718;-66
2022/06/02 13:40:47;;;;;;;1.92;1.10;;;;;;;25.14;31.19;96755.34;2051237;28;20281;-66
2022/06/02 13:42:26;;;;;;;13.90;1.30;;;;;;;26.22;30.83;96764.69;2056701;28;20613;-66
2022/06/02 13:43:47;;;;;;;35.35;1.65;;;;;;;26.09;30.87;96759.81;2058450;28;20214;-66
2022/06/02 13:44:54;;;;;;;95.15;3.50;;;;;;;26.35;30.83;96761.56;2060233;28;20210;-66
2022/06/02 13:46:19;;;;;;;71.53;3.30;;;;;;;26.86;29.92;96762.25;2061068;28;20198;-66
2022/06/02 13:47:38;;;;;;;19.92;2.35;;;;;;;27.20;29.82;96755.84;2048280;28;20280;-66
2022/06/02 13:49:01;;;;;;;17.02;1.98;;;;;;;27.14;29.27;96758.38;2060116;28;20194;-66
2022/06/02 13:50:29;;;;;;;16.98;1.35;;;;;;;27.29;29.75;96742.44;2052153;28;20195;-66
2022/06/02 13:52:05;;;;;;;10.30;1.10;;;;;;;27.54;29.29;96759.31;2042459;28;20707;-66
2022/06/02 13:53:24;;;;;;;6.35;1.13;;;;;;;27.77;29.01;96758.56;2060456;28;20198;-66
2022/06/02 13:58:00;;;;;;;27.83;2.38;;;;;;;28.00;28.50;96755.94;2053933;28;20215;-62
2022/06/02 13:59:16;;;;;;;29.00;2.00;;;;;;;27.86;28.24;96761.03;2052530;28;20204;-62
2022/06/02 14:00:28;;;;;;;11.63;2.00;;;;;;;27.39;29.09;96748.47;2052987;28;20213;-62
2022/06/02 14:01:45;;;;;;;9.60;1.52;;;;;;;27.46;29.04;96759.34;2053397;28;20199;-62
2022/06/02 14:03:04;;;;;;;12.23;2.13;;;;;;;27.16;28.99;96749.16;2052790;28;20203;-61
2022/06/02 14:04:21;;;;;;;4.85;0.90;;;;;;;27.21;29.32;96738.78;2051825;28;20228;-62
2022/06/02 14:05:41;;;;;;;23.95;1.55;;;;;;;27.51;28.94;96746.25;2053087;28;20202;-62
2022/06/02 14:07:00;;;;;;;160.93;5.63;;;;;;;27.73;28.98;96741.13;2045474;28;20210;-62
2022/06/02 14:08:38;;;;;;;25.10;1.60;;;;;;;27.68;28.91;96739.81;2061317;28;20198;-62
2022/06/02 14:10:07;;;;;;;201.15;7.30;;;;;;;27.76;28.90;96747.00;2051813;28;20222;-62
2022/06/02 14:11:46;;;;;;;32.85;2.70;;;;;;;27.46;29.22;96744.09;2054322;28;20690;-62
2022/06/02 14:13:12;;;;;;;3.08;1.33;;;;;;;27.02;29.87;96745.34;2053780;28;20675;-62
2022/06/02 14:14:21;;;;;;;15.75;1.20;;;;;;;26.63;30.26;96742.50;2054012;28;20199;-62
2022/06/02 14:16:01;;;;;;;14.00;1.55;;;;;;;26.50;30.08;96746.50;2053456;28;20218;-62
2022/06/02 14:17:12;;;;;;;10.93;1.50;;;;;;;26.11;30.47;96743.63;2046720;28;20734;-62
2022/06/02 14:18:35;;;;;;;23.55;2.47;;;;;;;26.09;30.67;96754.47;2059959;28;20214;-62
2022/06/02 14:20:16;;;;;;;173.57;7.72;;;;;;;26.19;30.94;96743.63;2051617;28;20227;-62
2022/06/02 14:21:47;;;;;;;10.30;1.40;;;;;;;26.26;30.37;96743.78;2052034;28;20203;-62
2022/06/02 14:23:30;;;;;;;3.70;1.10;;;;;;;25.82;31.38;96742.16;2049462;28;20227;-62
2022/06/02 14:24:58;;;;;;;18.95;1.60;;;;;;;26.55;30.87;96737.97;2053737;28;20199;-62
2022/06/02 14:26:27;;;;;;;3.80;1.00;;;;;;;26.11;31.16;96743.63;2053205;28;20202;-62
2022/06/02 14:27:29;;;;;;;10.30;1.48;;;;;;;26.23;30.99;96751.16;2054513;28;20305;-62
2022/06/02 14:28:51;;;;;;;11.95;1.75;;;;;;;26.25;30.63;96745.63;2052140;28;20200;-62
2022/06/02 14:29:55;;;;;;;58.42;4.32;;;;;;;26.22;31.01;96749.47;2054483;28;20206;-61
2022/06/02 14:31:11;;;;;;;21.92;3.08;;;;;;;26.18;31.19;96741.94;2053376;28;20203;-62
2022/06/02 14:32:37;;;;;;;37.88;3.25;;;;;;;25.62;31.54;96745.06;2054657;28;20229;-61
2022/06/02 14:33:43;;;;;;;3.95;1.48;;;;;;;24.76;31.82;96744.91;2065472;28;20292;-61
2022/06/02 14:35:23;;;;;;;2.72;1.13;;;;;;;25.15;32.22;96742.81;2059629;28;20694;-61
2022/06/02 14:36:31;;;;;;;51.53;2.58;;;;;;;25.13;32.45;96748.31;2051250;28;20222;-62
2022/06/02 14:37:35;;;;;;;42.67;4.07;;;;;;;25.03;32.67;96745.75;2059271;28;20285;-62
2022/06/02 14:38:42;;;;;;;16.65;1.33;;;;;;;24.81;33.25;96741.78;2060613;28;20198;-61
2022/06/02 14:40:21;;;;;;;149.15;5.97;;;;;;;24.88;32.66;96741.97;2058434;28;20217;-61
2022/06/02 14:41:27;;;;;;;7.78;1.95;;;;;;;24.37;33.49;96752.38;2066677;28;20224;-61
2022/06/02 14:43:03;;;;;;;1.42;1.20;;;;;;;23.38;34.27;96746.75;2062195;28;20227;-61
2022/06/02 14:44:15;;;;;;;1.30;1.10;;;;;;;22.61;35.49;96722.81;2060213;28;20213;-62
2022/06/02 14:45:21;;;;;;;33.92;2.15;;;;;;;23.69;34.40;96737.63;2059840;28;20199;-59
2022/06/02 14:46:52;;;;;;;34.28;3.33;;;;;;;24.03;35.09;96731.72;2057833;28;20661;-59
2022/06/02 14:47:53;;;;;;;36.28;2.70;;;;;;;24.43;34.59;96730.44;2060597;28;20226;-59
2022/06/02 14:49:20;;;;;;;148.18;8.00;;;;;;;24.51;33.93;96738.50;2062235;28;20756;-59
2022/06/02 14:50:33;;;;;;;353.80;13.77;;;;;;;24.13;34.35;96740.47;2060246;28;20199;-60
2022/06/02 14:51:39;;;;;;;70.78;3.40;;;;;;;24.18;34.07;96710.69;2052867;28;20205;-60
2022/06/02 14:52:41;;;;;;;117.80;5.35;;;;;;;24.49;33.49;96745.78;2063405;28;20206;-59
2022/06/02 14:53:48;;;;;;;541.25;25.05;;;;;;;24.53;33.91;96736.50;2064870;28;20227;-59
2022/06/02 14:55:02;;;;;;;163.05;8.43;;;;;;;24.38;33.63;96736.22;2060619;28;20221;-60
2022/06/02 14:56:13;;;;;;;236.20;11.07;;;;;;;24.18;34.29;96742.69;2060390;28;20202;-59
2022/06/02 14:57:36;;;;;;;564.53;32.20;;;;;;;24.31;34.41;96742.31;2049053;28;20744;-58
2022/06/02 14:59:14;;;;;;;6.82;1.55;;;;;;;24.04;34.32;96736.06;2054281;28;20238;-59
2022/06/02 15:00:37;;;;;;;19.25;2.20;;;;;;;23.69;34.47;96732.28;2054023;28;20222;-59
2022/06/02 15:01:56;;;;;;;26.20;2.00;;;;;;;24.02;34.46;96738.84;2045857;28;20836;-59
2022/06/02 15:03:36;;;;;;;59.53;3.30;;;;;;;24.14;33.99;96734.16;2061677;28;20203;-60
2022/06/02 15:04:52;;;;;;;10.70;1.02;;;;;;;23.86;34.73;96725.31;2051145;28;20208;-60
2022/06/02 15:05:58;;;;;;;26.55;2.15;;;;;;;23.60;34.81;96715.38;2051825;28;20202;-60
2022/06/02 15:07:29;;;;;;;68.38;3.75;;;;;;;23.73;35.41;96723.00;2046401;28;20229;-60
2022/06/02 15:08:57;;;;;;;27.35;2.55;;;;;;;23.70;35.81;96720.66;2056843;28;20267;-60
2022/06/02 15:10:25;;;;;;;72.82;2.45;;;;;;;23.77;35.77;96716.41;2061309;28;20201;-59
2022/06/02 15:11:39;;;;;;;13.57;1.40;;;;;;;23.81;35.78;96717.78;2050260;28;20199;-60
2022/06/02 15:12:48;;;;;;;19.10;2.03;;;;;;;23.68;35.85;96710.16;2061233;28;20360;-60
2022/06/02 15:13:59;;;;;;;9.23;1.17;;;;;;;23.50;35.88;96702.09;2059979;28;20206;-59
2022/06/02 15:15:19;;;;;;;7.25;1.20;;;;;;;23.58;35.78;96704.88;2059810;28;20241;-61
2022/06/02 15:16:33;;;;;;;26.98;1.70;;;;;;;23.63;35.98;96704.44;2060581;28;20323;-60
2022/06/02 15:17:45;;;;;;;4.13;1.58;;;;;;;23.44;36.38;96695.53;2062431;28;20225;-60
2022/06/02 15:19:05;;;;;;;43.95;2.78;;;;;;;23.42;35.98;96699.34;2061571;28;20229;-60
2022/06/02 15:20:57;;;;;;;22.23;3.88;;;;;;;23.24;36.19;96691.28;2062216;28;20202;-59
2022/06/02 15:22:33;;;;;;;9.60;1.63;;;;;;;23.22;36.34;96687.94;2056130;28;20696;-60
2022/06/02 15:23:34;;;;;;;4.80;1.35;;;;;;;23.17;36.75;96696.34;2066366;28;20693;-60
2022/06/02 15:24:46;;;;;;;165.57;6.50;;;;;;;23.14;36.90;96685.97;2062485;28;20246;-59
2022/06/02 15:25:52;;;;;;;73.05;3.53;;;;;;;23.24;36.41;96680.63;2062270;28;20857;-61
2022/06/02 15:27:09;;;;;;;22.08;2.38;;;;;;;23.28;36.52;96679.34;2054391;28;20221;-60
2022/06/02 15:29:01;;;;;;;35.78;3.03;;;;;;;23.24;36.32;96689.44;2068740;28;20193;-60
2022/06/02 15:30:12;;;;;;;28.77;2.38;;;;;;;23.30;36.83;96682.72;2060224;28;20290;-64
2022/06/02 15:31:19;;;;;;;8.98;1.73;;;;;;;23.42;36.81;96691.34;2059687;28;20560;-64
2022/06/02 15:32:51;;;;;;;8.93;1.45;;;;;;;23.39;36.91;96692.47;2058259;28;20231;-64
2022/06/02 15:34:32;;;;;;;5.47;1.27;;;;;;;23.42;36.61;96691.34;2061370;28;20720;-64
2022/06/02 15:36:03;;;;;;;17.30;2.15;;;;;;;23.53;36.29;96695.63;2060988;28;20201;-64
2022/06/02 15:37:13;;;;;;;3.50;1.40;;;;;;;23.57;35.41;96691.69;2054852;28;20225;-64
2022/06/02 15:38:52;;;;;;;2.42;1.33;;;;;;;23.30;35.92;96683.53;2069612;28;20731;-64
2022/06/02 15:40:28;;;;;;;3.53;1.00;;;;;;;23.67;36.00;96688.94;2059892;28;20195;-63
2022/06/02 15:41:48;;;;;;;25.98;16.90;;;;;;;24.00;35.74;96679.50;2125588;22;20292;-60
2022/06/02 15:43:08;;;;;;;115.00;67.35;;;;;;;24.09;35.89;96677.75;2078644;28;20197;-59
2022/06/02 15:44:46;;;;;;;38.28;5.65;;;;;;;23.87;36.33;96685.19;2071097;28;20205;-59
2022/06/02 15:46:20;;;;;;;4.70;1.30;;;;;;;23.78;35.71;96686.94;2069284;28;20193;-59
2022/06/02 15:48:06;;;;;;;27.52;1.65;;;;;;;23.75;36.74;96694.38;2027023;29;20217;-63
2022/06/02 15:49:36;;;;;;;11.13;1.70;;;;;;;23.82;36.32;96690.13;2070337;28;20263;-64
2022/06/02 15:51:19;;;;;;;4.20;1.58;;;;;;;23.94;35.91;96688.94;2069232;28;20198;-64
2022/06/02 15:52:37;;;;;;;2.03;1.17;;;;;;;24.10;35.52;96682.94;2068066;28;20221;-64
2022/06/02 15:53:56;;;;;;;5.57;1.58;;;;;;;24.30;36.20;96688.09;2069116;28;20268;-64
2022/06/02 15:55:40;;;;;;;4.00;1.10;;;;;;;24.25;36.52;96677.91;2070649;28;20202;-64
2022/06/02 15:56:53;;;;;;;1.85;0.75;;;;;;;24.11;36.75;96683.75;2060176;28;20232;-64
2022/06/02 15:58:28;;;;;;;4.45;1.13;;;;;;;24.22;36.10;96682.72;2076101;28;20209;-64
2022/06/02 16:00:08;;;;;;;2.65;0.90;;;;;;;24.16;36.56;96684.16;2069296;28;20619;-64
2022/06/02 16:01:31;;;;;;;10.65;1.38;;;;;;;24.13;36.54;96682.63;2068883;28;20207;-60
2022/06/02 16:02:38;;;;;;;6.18;1.15;;;;;;;24.07;36.47;96687.75;2070534;28;20240;-60
2022/06/02 16:04:14;;;;;;;2.90;1.23;;;;;;;24.12;36.49;96669.44;2069169;28;20719;-59
2022/06/02 16:05:47;;;;;;;2.00;0.90;;;;;;;24.16;36.31;96689.47;2069992;28;20556;-60
2022/06/02 16:07:20;;;;;;;3.63;1.00;;;;;;;24.18;36.38;96678.69;2062584;28;20221;-60
2022/06/02 16:08:35;;;;;;;2.75;1.10;;;;;;;24.02;36.41;96677.50;2067740;28;20213;-60
2022/06/02 16:11:40;;;;;;;3.58;1.00;;;;;;;23.89;36.55;96685.03;2069959;28;20646;-60
2022/06/02 16:13:00;;;;;;;6.28;1.10;;;;;;;24.01;36.70;96675.00;2079873;28;20551;-60
2022/06/02 16:14:11;;;;;;;2.15;0.90;;;;;;;24.17;36.25;96679.66;2076971;28;20193;-60
2022/06/02 16:15:45;;;;;;;8.90;1.40;;;;;;;24.03;36.03;96671.19;2070609;28;20267;-59
2022/06/02 16:17:23;;;;;;;1.27;1.00;;;;;;;24.41;35.46;96673.69;2053951;28;20676;-60
2022/06/02 16:19:02;;;;;;;6.47;1.00;;;;;;;24.81;35.29;96677.69;2078722;28;20193;-60
2022/06/02 16:20:36;;;;;;;4.47;0.95;;;;;;;24.82;35.15;96675.84;2071803;28;20190;-60
2022/06/02 16:21:59;;;;;;;5.15;1.15;;;;;;;24.70;34.99;96685.97;2060600;28;20209;-60
2022/06/02 16:23:48;;;;;;;2.35;0.90;;;;;;;24.69;35.61;96682.44;2075946;28;20212;-60
2022/06/02 16:25:20;;;;;;;1.45;1.08;;;;;;;24.62;35.91;96681.38;2070048;28;20646;-60
2022/06/02 16:26:33;;;;;;;2.33;0.98;;;;;;;24.68;35.22;96687.94;2071424;28;20556;-60
2022/06/02 16:27:56;;;;;;;5.75;1.27;;;;;;;24.39;35.38;96683.66;2070665;28;20796;-61
2022/06/02 16:29:29;;;;;;;7.25;0.98;;;;;;;24.78;35.36;96686.00;2069703;28;20197;-61
2022/06/02 16:31:07;;;;;;;3.85;1.30;;;;;;;23.83;36.32;96685.63;2068528;28;20229;-61
2022/06/02 16:32:28;;;;;;;1.95;1.25;;;;;;;24.05;36.40;96677.22;2069746;28;20306;-62
2022/06/02 16:33:30;;;;;;;2.65;1.15;;;;;;;24.23;36.48;96676.38;2070374;28;20202;-62
2022/06/02 16:35:03;;;;;;;4.97;1.00;;;;;;;24.24;35.83;96675.38;2070249;28;20200;-63
2022/06/02 16:36:35;;;;;;;5.53;1.13;;;;;;;23.89;36.88;96671.69;2070426;28;20202;-63
2022/06/02 16:38:06;;;;;;;4.82;1.60;;;;;;;23.62;38.65;96676.91;2078272;28;20225;-62
2022/06/02 16:39:11;;;;;;;6.43;1.75;;;;;;;23.56;37.99;96674.84;2065235;28;20201;-63
2022/06/02 16:41:01;;;;;;;12.05;2.42;;;;;;;23.52;37.94;96681.47;2076387;28;20190;-63
2022/06/02 16:42:22;;;;;;;7.47;1.70;;;;;;;23.49;37.55;96676.44;2065461;28;20224;-62
2022/06/02 16:43:50;;;;;;;6.10;1.92;;;;;;;23.38;38.12;96685.47;2085081;28;20829;-63
2022/06/02 16:45:11;;;;;;;4.75;1.65;;;;;;;23.26;38.22;96684.84;2077319;28;20213;-63
2022/06/02 16:46:21;;;;;;;3.75;1.40;;;;;;;23.16;37.66;96684.03;2044272;29;20219;-63
2022/06/02 16:47:39;;;;;;;3.45;1.63;;;;;;;23.05;38.36;96679.69;2073969;28;20243;-62
2022/06/02 16:49:12;;;;;;;6.47;1.63;;;;;;;23.13;38.57;96679.81;2079023;28;20216;-62
2022/06/02 16:50:51;;;;;;;9.55;2.00;;;;;;;22.86;38.99;96683.25;2079820;28;20200;-62
2022/06/02 16:52:03;;;;;;;4.93;1.55;;;;;;;23.01;39.29;96680.97;2077587;28;20228;-63
2022/06/02 16:53:52;;;;;;;7.35;1.92;;;;;;;22.94;38.79;96670.06;2075865;28;20209;-65
2022/06/02 16:54:37;;;;;;;3.88;1.08;;;;;;;23.03;38.91;96678.16;2078441;28;20201;-62
2022/06/02 16:55:55;;;;;;;1.70;1.20;;;;;;;22.95;38.86;96668.25;2078928;28;20205;-62
2022/06/02 16:57:18;;;;;;;10.02;1.67;;;;;;;22.91;39.10;96675.69;2073014;28;20650;-62
2022/06/02 16:58:45;;;;;;;18.38;8.38;;;;;;;22.91;38.65;96686.31;2087211;28;20246;-64
2022/06/02 17:00:10;;;;;;;98.90;64.60;;;;;;;22.79;38.67;96679.47;2083265;28;20200;-61
2022/06/02 17:01:53;;;;;;;106.38;70.57;;;;;;;22.85;38.51;96676.25;2078573;28;20204;-63
2022/06/02 17:03:22;;;;;;;3.40;2.25;;;;;;;22.66;38.59;96672.69;2076736;28;20880;-62
2022/06/02 17:05:12;;;;;;;2.20;1.40;;;;;;;22.68;38.39;96667.19;2078730;28;20200;-62
2022/06/02 17:06:35;;;;;;;2.10;1.00;;;;;;;22.80;38.48;96662.53;2075307;28;20230;-62
2022/06/02 17:08:03;;;;;;;4.00;0.95;;;;;;;23.06;38.19;96667.19;2076284;28;20566;-62
2022/06/02 17:09:20;;;;;;;2.38;1.05;;;;;;;23.23;37.78;96668.31;2078746;28;20216;-63
2022/06/02 17:10:24;;;;;;;2.38;1.10;;;;;;;23.13;38.10;96663.84;2077709;28;20550;-63
2022/06/02 17:11:39;;;;;;;1.50;1.02;;;;;;;23.03;37.77;96663.00;2078382;28;20620;-63
